Time;durP1;ratioP1;P1;durP2;ratioP2;P2;SDS_P1;SDS_P2;PMS_P1;PMS_P2;Temp;Humidity;BMP_temperature;BMP_pressure;BME280_temperature;BME280_humidity;BME280_pressure;Samples;Min_cycle;Max_cycle;Signal;HPM_P1;HPM_P2
2023/07/21 00:01:08;;;;;;;1.33;1.23;;;15.80;97.00;;;;;;5224623;28;20179;-46
2023/07/21 00:03:39;;;;;;;4.33;1.97;;;15.70;97.00;;;;;;5238779;28;20425;-46
2023/07/21 00:06:11;;;;;;;4.13;1.87;;;15.70;97.20;;;;;;5223464;28;20447;-46
2023/07/21 00:08:41;;;;;;;1.60;1.50;;;15.70;97.60;;;;;;5242278;28;20209;-46
2023/07/21 00:11:12;;;;;;;5.07;1.93;;;15.70;97.90;;;;;;5245673;28;20436;-45
2023/07/21 00:13:43;;;;;;;2.37;1.80;;;15.60;98.00;;;;;;5239701;28;20191;-46
2023/07/21 00:16:13;;;;;;;2.50;1.90;;;15.60;98.30;;;;;;5222995;28;20248;-45
2023/07/21 00:18:46;;;;;;;1.67;1.57;;;15.60;98.60;;;;;;5218442;28;20226;-45
2023/07/21 00:21:17;;;;;;;2.00;1.90;;;15.60;98.90;;;;;;5221237;28;20174;-47
2023/07/21 00:23:48;;;;;;;3.90;1.90;;;15.50;99.30;;;;;;5234749;28;20421;-44
2023/07/21 00:26:19;;;;;;;2.50;2.17;;;15.50;99.70;;;;;;5240114;28;20451;-46
2023/07/21 00:28:49;;;;;;;3.70;1.40;;;15.50;99.60;;;;;;5240191;28;20268;-46
2023/07/21 00:31:20;;;;;;;2.00;1.27;;;15.50;99.80;;;;;;5240830;28;20282;-45
2023/07/21 00:33:51;;;;;;;1.57;1.50;;;15.50;99.90;;;;;;5258254;28;20252;-46
2023/07/21 00:36:21;;;;;;;1.13;1.03;;;15.40;99.90;;;;;;5219398;28;20217;-45
2023/07/21 00:38:52;;;;;;;5.03;1.20;;;15.40;99.90;;;;;;5210452;28;20222;-46
2023/07/21 00:41:22;;;;;;;0.90;0.70;;;15.30;99.90;;;;;;5241511;28;20182;-46
2023/07/21 00:43:53;;;;;;;3.07;1.33;;;15.30;99.90;;;;;;5245518;28;20229;-46
2023/07/21 00:46:24;;;;;;;1.00;0.90;;;15.20;99.90;;;;;;5246266;28;20237;-46
2023/07/21 00:48:54;;;;;;;2.97;1.50;;;15.20;99.90;;;;;;5240664;28;20281;-46
2023/07/21 00:51:25;;;;;;;1.37;0.83;;;15.10;99.90;;;;;;5247212;28;20696;-45
2023/07/21 00:53:56;;;;;;;1.17;1.00;;;15.00;99.90;;;;;;5240229;28;20176;-45
2023/07/21 00:56:27;;;;;;;1.40;1.40;;;15.00;99.90;;;;;;5240035;28;20305;-46
2023/07/21 00:58:59;;;;;;;2.63;1.40;;;15.00;99.90;;;;;;5222016;28;20213;-46
2023/07/21 01:01:30;;;;;;;2.43;1.77;;;14.90;99.90;;;;;;5240012;28;20552;-45
2023/07/21 01:04:00;;;;;;;1.73;1.10;;;14.90;99.90;;;;;;5248665;28;20447;-45
2023/07/21 01:06:32;;;;;;;1.73;1.27;;;14.80;99.90;;;;;;5232602;28;20182;-45
2023/07/21 01:09:06;;;;;;;1.10;1.10;;;14.90;99.90;;;;;;5244434;28;20194;-46
2023/07/21 01:11:37;;;;;;;23.73;1.93;;;14.80;99.90;;;;;;5239966;28;20772;-46
2023/07/21 01:14:09;;;;;;;1.63;1.53;;;14.80;99.90;;;;;;5249943;28;20428;-45
2023/07/21 01:16:43;;;;;;;1.80;1.70;;;14.80;99.90;;;;;;5225489;28;20253;-45
2023/07/21 01:19:15;;;;;;;1.47;1.37;;;14.80;99.90;;;;;;5227319;28;20448;-46
2023/07/21 01:21:55;;;;;;;4.33;1.67;;;14.80;99.90;;;;;;5246362;28;20449;-45
2023/07/21 01:24:38;;;;;;;0.80;0.80;;;14.90;99.90;;;;;;5249296;28;20454;-46
2023/07/21 01:27:11;;;;;;;2.40;1.43;;;14.80;99.90;;;;;;5229553;28;20435;-46
2023/07/21 01:29:43;;;;;;;2.97;1.40;;;14.80;99.90;;;;;;5224750;28;20465;-45
2023/07/21 01:32:18;;;;;;;1.50;0.93;;;14.80;99.90;;;;;;5245210;28;20619;-46
2023/07/21 01:34:50;;;;;;;1.00;1.00;;;14.80;99.90;;;;;;5224517;28;20623;-46
2023/07/21 01:37:23;;;;;;;2.30;1.30;;;14.70;99.90;;;;;;5246726;28;20464;-45
2023/07/21 01:39:55;;;;;;;7.57;1.40;;;14.60;99.90;;;;;;5244773;28;20909;-45
2023/07/21 01:42:29;;;;;;;3.73;1.30;;;14.60;99.90;;;;;;5215478;28;20433;-46
2023/07/21 01:45:02;;;;;;;3.23;1.37;;;14.60;99.90;;;;;;5242327;28;20429;-47
2023/07/21 01:47:33;;;;;;;1.17;1.17;;;14.60;99.90;;;;;;5242127;28;21004;-47
2023/07/21 01:50:06;;;;;;;1.17;1.07;;;14.60;99.90;;;;;;5228019;28;20468;-46
2023/07/21 01:52:37;;;;;;;4.00;0.83;;;14.50;99.90;;;;;;5246242;28;20451;-45
2023/07/21 01:55:21;;;;;;;1.50;1.27;;;14.50;99.90;;;;;;5243386;28;20433;-46
2023/07/21 01:58:00;;;;;;;0.80;0.80;;;14.50;99.90;;;;;;5247960;28;20242;-45
2023/07/21 02:00:37;;;;;;;1.03;0.93;;;14.50;99.90;;;;;;5241337;28;20597;-46
2023/07/21 02:03:08;;;;;;;1.00;1.00;;;14.40;99.90;;;;;;5232945;28;20458;-45
2023/07/21 02:05:39;;;;;;;0.93;0.93;;;14.40;99.90;;;;;;5230496;28;20955;-46
2023/07/21 02:08:10;;;;;;;1.53;1.40;;;14.30;99.90;;;;;;5243984;28;20532;-45
2023/07/21 02:10:41;;;;;;;0.93;0.90;;;14.30;99.90;;;;;;5246463;28;20673;-45
2023/07/21 02:13:13;;;;;;;3.50;1.07;;;14.30;99.90;;;;;;5229621;28;20436;-45
2023/07/21 02:15:44;;;;;;;2.50;1.10;;;14.30;99.90;;;;;;5216605;28;20691;-45
2023/07/21 02:18:14;;;;;;;3.03;1.00;;;14.40;99.90;;;;;;5224829;28;20524;-46
2023/07/21 02:20:45;;;;;;;4.20;1.70;;;14.40;99.90;;;;;;5247068;28;20580;-45
2023/07/21 02:23:16;;;;;;;1.10;1.10;;;14.40;99.90;;;;;;5227515;28;20201;-45
2023/07/21 02:25:47;;;;;;;0.80;0.80;;;14.40;99.90;;;;;;5252424;28;20177;-46
2023/07/21 02:28:18;;;;;;;0.97;0.97;;;14.40;99.90;;;;;;5217990;28;20438;-45
2023/07/21 02:31:03;;;;;;;4.10;1.47;;;14.40;99.90;;;;;;5236905;28;20183;-47
2023/07/21 02:33:34;;;;;;;1.00;1.00;;;14.40;99.90;;;;;;5250732;28;20186;-44
2023/07/21 02:36:05;;;;;;;2.63;1.00;;;14.30;99.90;;;;;;5242514;28;20465;-44
2023/07/21 02:38:36;;;;;;;1.23;1.23;;;14.30;99.90;;;;;;5244644;28;20186;-46
2023/07/21 02:41:08;;;;;;;1.97;1.27;;;14.30;99.90;;;;;;5252445;28;20844;-46
2023/07/21 02:43:39;;;;;;;0.73;0.73;;;14.20;99.90;;;;;;5229760;28;20174;-45
2023/07/21 02:46:11;;;;;;;2.70;0.90;;;14.20;99.90;;;;;;5245404;28;20459;-46
2023/07/21 02:48:41;;;;;;;2.00;1.10;;;14.10;99.90;;;;;;5243610;28;20190;-46
2023/07/21 02:51:12;;;;;;;1.20;1.20;;;14.20;99.90;;;;;;5226877;28;20550;-45
2023/07/21 02:53:42;;;;;;;1.17;1.07;;;14.20;99.90;;;;;;5244931;28;20245;-45
2023/07/21 02:56:15;;;;;;;1.23;1.23;;;14.20;99.90;;;;;;5237894;28;20206;-46
2023/07/21 02:58:45;;;;;;;2.10;1.03;;;14.20;99.90;;;;;;5212314;28;20203;-46
2023/07/21 03:01:18;;;;;;;2.57;1.40;;;14.20;99.90;;;;;;5220589;28;20437;-46
2023/07/21 03:03:48;;;;;;;3.23;1.77;;;14.20;99.90;;;;;;5219195;28;20181;-45
2023/07/21 03:06:19;;;;;;;7.50;1.77;;;14.20;99.90;;;;;;5255388;28;20509;-46
2023/07/21 03:08:52;;;;;;;1.83;1.23;;;14.20;99.90;;;;;;5244873;28;20198;-45
2023/07/21 03:11:23;;;;;;;1.60;1.20;;;14.20;99.90;;;;;;5241338;28;20924;-46
2023/07/21 03:13:53;;;;;;;1.23;1.23;;;14.30;99.90;;;;;;5234649;28;20515;-46
2023/07/21 03:16:24;;;;;;;2.20;1.00;;;14.30;99.90;;;;;;5236353;28;20570;-45
2023/07/21 03:18:54;;;;;;;0.93;0.90;;;14.30;99.90;;;;;;5242357;28;20202;-46
2023/07/21 03:21:26;;;;;;;6.67;2.00;;;14.30;99.90;;;;;;5223839;28;20622;-46
2023/07/21 03:23:57;;;;;;;7.00;1.93;;;14.30;99.90;;;;;;5243353;28;20519;-47
2023/07/21 03:26:27;;;;;;;6.33;1.67;;;14.30;99.90;;;;;;5245611;28;20448;-45
2023/07/21 03:28:58;;;;;;;1.03;1.00;;;14.30;99.90;;;;;;5221201;28;20947;-46
2023/07/21 03:31:29;;;;;;;0.73;0.73;;;14.40;99.90;;;;;;5234336;28;20183;-45
2023/07/21 03:33:59;;;;;;;1.30;1.23;;;14.40;99.90;;;;;;5225153;28;20187;-45
2023/07/21 03:36:30;;;;;;;0.80;0.80;;;14.40;99.90;;;;;;5227614;28;20218;-46
2023/07/21 03:39:00;;;;;;;1.33;1.23;;;14.40;99.90;;;;;;5238730;28;20225;-46
2023/07/21 03:41:31;;;;;;;2.00;1.13;;;14.40;99.90;;;;;;5235159;28;20186;-45
2023/07/21 03:44:02;;;;;;;2.10;0.80;;;14.50;99.90;;;;;;5226950;28;20175;-45
2023/07/21 03:46:32;;;;;;;2.60;1.13;;;14.50;99.90;;;;;;5227754;28;20181;-46
2023/07/21 03:49:03;;;;;;;1.03;1.03;;;14.50;99.90;;;;;;5238123;28;20203;-45
2023/07/21 03:51:34;;;;;;;1.40;1.37;;;14.60;99.90;;;;;;5224334;28;20193;-46
2023/07/21 03:54:05;;;;;;;1.67;1.10;;;14.70;99.90;;;;;;5225594;28;20182;-45
2023/07/21 03:56:35;;;;;;;0.83;0.83;;;14.70;99.90;;;;;;5244794;28;20474;-46
2023/07/21 03:59:06;;;;;;;1.83;1.40;;;14.80;99.90;;;;;;5229679;28;20316;-46
2023/07/21 04:01:37;;;;;;;3.80;0.90;;;14.90;99.90;;;;;;5222397;28;20531;-45
2023/07/21 04:04:07;;;;;;;0.80;0.80;;;15.00;99.90;;;;;;5244963;28;20201;-46
2023/07/21 04:06:38;;;;;;;0.90;0.90;;;15.10;99.90;;;;;;5233581;28;20542;-45
2023/07/21 04:09:13;;;;;;;1.53;1.43;;;15.10;99.90;;;;;;5250204;28;20198;-47
2023/07/21 04:11:43;;;;;;;1.33;1.33;;;15.20;99.90;;;;;;5242460;28;20185;-46
2023/07/21 04:14:14;;;;;;;4.57;1.57;;;15.20;99.90;;;;;;5244248;28;20470;-46
2023/07/21 04:16:45;;;;;;;4.73;1.90;;;15.30;99.90;;;;;;5224647;28;20584;-45
2023/07/21 04:19:15;;;;;;;2.70;2.00;;;15.30;99.90;;;;;;5244023;28;20618;-46
2023/07/21 04:21:47;;;;;;;2.43;1.77;;;15.40;99.90;;;;;;5245391;28;20455;-45
2023/07/21 04:24:18;;;;;;;3.37;2.10;;;15.50;99.90;;;;;;5246961;28;20239;-45
2023/07/21 04:26:48;;;;;;;2.77;2.40;;;15.60;99.90;;;;;;5238115;28;20528;-46
2023/07/21 04:29:19;;;;;;;3.07;2.40;;;16.00;99.90;;;;;;5223201;28;20202;-46
2023/07/21 04:31:49;;;;;;;9.80;2.37;;;16.60;99.90;;;;;;5227306;28;20519;-45
2023/07/21 04:34:20;;;;;;;11.03;2.73;;;16.90;99.90;;;;;;5236629;28;20199;-45
2023/07/21 04:36:51;;;;;;;3.90;1.60;;;16.90;99.90;;;;;;5240550;28;21581;-46
2023/07/21 04:39:21;;;;;;;2.13;1.93;;;16.80;99.90;;;;;;5247275;28;20210;-45
2023/07/21 04:41:52;;;;;;;2.83;2.03;;;16.60;99.90;;;;;;5225896;28;20215;-46
2023/07/21 04:44:22;;;;;;;1.97;1.87;;;16.60;99.90;;;;;;5245339;28;20646;-46
2023/07/21 04:46:53;;;;;;;5.10;1.90;;;16.70;99.90;;;;;;5242203;28;20182;-45
2023/07/21 04:49:24;;;;;;;6.20;2.70;;;16.90;99.90;;;;;;5218974;28;20222;-47
2023/07/21 04:51:54;;;;;;;7.13;2.80;;;17.00;99.90;;;;;;5240378;28;20179;-46
2023/07/21 04:54:25;;;;;;;3.40;1.93;;;17.00;99.90;;;;;;5247799;28;20214;-44
2023/07/21 04:56:56;;;;;;;2.90;1.90;;;17.00;99.90;;;;;;5228958;28;20209;-45
2023/07/21 04:59:26;;;;;;;6.83;1.97;;;17.00;99.90;;;;;;5246742;28;20220;-45
2023/07/21 05:01:58;;;;;;;2.90;2.30;;;17.40;99.90;;;;;;5249994;28;20179;-47
2023/07/21 05:04:28;;;;;;;4.70;2.50;;;18.00;99.90;;;;;;5247021;28;20180;-45
2023/07/21 05:07:01;;;;;;;3.03;2.17;;;18.70;99.90;;;;;;5210035;28;20436;-45
2023/07/21 05:09:31;;;;;;;3.87;2.60;;;19.50;99.90;;;;;;5223234;28;20293;-45
2023/07/21 05:12:02;;;;;;;3.27;2.60;;;19.60;99.90;;;;;;5229600;28;20524;-45
2023/07/21 05:14:33;;;;;;;3.47;2.57;;;19.30;99.90;;;;;;5249305;28;20190;-47
2023/07/21 05:17:03;;;;;;;4.30;2.53;;;18.90;99.90;;;;;;5245248;28;20300;-46
2023/07/21 05:19:34;;;;;;;5.67;3.10;;;18.60;99.90;;;;;;5245585;28;20201;-46
2023/07/21 05:22:05;;;;;;;10.60;3.70;;;18.40;99.90;;;;;;5240797;28;20182;-45
2023/07/21 05:24:35;;;;;;;3.97;2.90;;;18.30;99.90;;;;;;5250093;28;20218;-45
2023/07/21 05:27:07;;;;;;;4.90;3.10;;;18.20;99.90;;;;;;5250294;28;20468;-46
2023/07/21 05:29:37;;;;;;;4.47;3.00;;;18.20;99.90;;;;;;5246864;28;20198;-44
2023/07/21 05:32:08;;;;;;;6.33;3.30;;;18.00;99.90;;;;;;5220550;28;20452;-46
2023/07/21 05:34:39;;;;;;;5.53;2.90;;;17.80;99.90;;;;;;5247922;28;20198;-45
2023/07/21 05:37:13;;;;;;;2.77;2.57;;;17.60;99.90;;;;;;5246734;28;20665;-45
2023/07/21 05:39:44;;;;;;;1.83;1.73;;;17.40;99.90;;;;;;5243169;28;20205;-45
2023/07/21 05:42:15;;;;;;;7.63;2.40;;;17.20;99.90;;;;;;5244197;28;20494;-45
2023/07/21 05:44:47;;;;;;;4.80;2.60;;;17.10;99.90;;;;;;5245036;28;20433;-45
2023/07/21 05:47:19;;;;;;;8.60;2.70;;;17.00;99.90;;;;;;5244845;28;20183;-45
2023/07/21 05:49:49;;;;;;;10.57;2.80;;;17.00;99.90;;;;;;5247509;28;20456;-44
2023/07/21 05:52:20;;;;;;;4.87;2.47;;;17.10;99.90;;;;;;5225568;28;20443;-45
2023/07/21 05:54:50;;;;;;;5.70;3.00;;;17.10;99.90;;;;;;5235656;28;20202;-44
2023/07/21 05:57:21;;;;;;;10.13;2.90;;;17.10;99.90;;;;;;5230367;28;20910;-45
2023/07/21 05:59:52;;;;;;;7.70;2.00;;;17.10;99.90;;;;;;5239423;28;20324;-45
2023/07/21 06:02:22;;;;;;;2.40;2.30;;;17.00;99.90;;;;;;5249736;28;20331;-44
2023/07/21 06:04:56;;;;;;;3.60;2.43;;;17.00;99.90;;;;;;5255763;28;20653;-45
2023/07/21 06:07:28;;;;;;;4.23;2.70;;;17.10;99.90;;;;;;5222293;28;21791;-45
2023/07/21 06:09:58;;;;;;;7.53;1.73;;;17.10;99.90;;;;;;5226455;28;20457;-45
2023/07/21 06:12:29;;;;;;;2.70;2.50;;;17.10;99.90;;;;;;5221832;28;20766;-47
2023/07/21 06:15:00;;;;;;;5.40;2.37;;;17.20;99.90;;;;;;5237655;28;20189;-45
2023/07/21 06:17:31;;;;;;;2.40;2.20;;;17.30;99.90;;;;;;5226705;28;20209;-46
2023/07/21 06:20:01;;;;;;;2.30;2.20;;;17.50;99.90;;;;;;5229799;28;20458;-46
2023/07/21 06:22:32;;;;;;;2.17;1.97;;;17.70;99.90;;;;;;5223390;28;20191;-45
2023/07/21 06:25:04;;;;;;;1.83;1.73;;;18.20;99.90;;;;;;5227928;28;20175;-46
2023/07/21 06:27:34;;;;;;;4.50;2.37;;;18.40;99.90;;;;;;5222042;28;20183;-45
2023/07/21 06:30:06;;;;;;;7.20;2.03;;;18.40;99.90;;;;;;5241876;28;20453;-44
2023/07/21 06:32:36;;;;;;;2.17;2.07;;;18.30;99.90;;;;;;5232341;28;20179;-45
2023/07/21 06:35:08;;;;;;;1.90;1.60;;;18.10;99.90;;;;;;5232167;28;20451;-46
2023/07/21 06:37:39;;;;;;;2.70;2.20;;;18.00;99.90;;;;;;5236624;28;20205;-46
2023/07/21 06:40:10;;;;;;;2.07;1.80;;;17.90;99.90;;;;;;5238727;28;20461;-46
2023/07/21 06:42:44;;;;;;;3.00;2.20;;;17.80;99.90;;;;;;5204986;28;20230;-45
2023/07/21 06:45:14;;;;;;;3.97;1.90;;;17.80;99.90;;;;;;5220561;28;20487;-45
2023/07/21 06:47:45;;;;;;;2.60;2.40;;;17.80;99.90;;;;;;5228368;28;20440;-45
2023/07/21 06:50:15;;;;;;;3.60;2.43;;;17.80;99.90;;;;;;5252521;28;20240;-44
2023/07/21 06:52:46;;;;;;;2.33;2.23;;;17.90;99.90;;;;;;5231946;28;20186;-46
2023/07/21 06:55:17;;;;;;;4.10;2.60;;;17.80;99.90;;;;;;5233123;28;20175;-45
2023/07/21 06:57:48;;;;;;;2.93;2.63;;;17.80;99.90;;;;;;5229954;28;20307;-45
2023/07/21 07:00:18;;;;;;;5.33;3.17;;;17.90;99.90;;;;;;5217223;28;20218;-46
2023/07/21 07:02:49;;;;;;;12.03;3.77;;;18.10;99.90;;;;;;5229846;28;20194;-47
2023/07/21 07:05:20;;;;;;;3.90;3.33;;;18.20;99.90;;;;;;5228339;28;20244;-46
2023/07/21 07:07:53;;;;;;;7.73;3.70;;;18.30;99.90;;;;;;5232705;28;20436;-47
2023/07/21 07:10:23;;;;;;;8.90;4.10;;;18.40;99.90;;;;;;5244112;28;20206;-46
2023/07/21 07:12:54;;;;;;;5.00;3.97;;;18.40;99.90;;;;;;5200747;28;20519;-46
2023/07/21 07:15:25;;;;;;;8.50;4.70;;;18.50;99.40;;;;;;5236680;28;20178;-46
2023/07/21 07:17:55;;;;;;;7.03;4.40;;;18.50;99.40;;;;;;5230963;28;20281;-46
2023/07/21 07:20:28;;;;;;;12.40;4.50;;;18.50;99.00;;;;;;5222961;28;20278;-46
2023/07/21 07:22:59;;;;;;;10.23;5.13;;;18.40;98.90;;;;;;5234853;28;20176;-46
2023/07/21 07:25:29;;;;;;;6.13;4.20;;;18.40;98.70;;;;;;5241810;28;20927;-47
2023/07/21 07:28:00;;;;;;;7.90;4.70;;;18.40;99.30;;;;;;5228285;28;20177;-46
2023/07/21 07:30:33;;;;;;;10.57;4.90;;;18.20;99.80;;;;;;5207222;28;20203;-45
2023/07/21 07:33:04;;;;;;;5.73;3.77;;;18.20;99.90;;;;;;5233661;28;20320;-46
2023/07/21 07:35:35;;;;;;;10.90;4.10;;;18.10;99.90;;;;;;5239363;28;21013;-46
2023/07/21 07:38:05;;;;;;;8.80;4.40;;;18.00;99.90;;;;;;5234012;28;20210;-53
2023/07/21 07:40:37;;;;;;;4.47;3.67;;;18.00;99.90;;;;;;5237218;28;20670;-45
2023/07/21 07:43:08;;;;;;;7.60;4.20;;;18.10;99.90;;;;;;5235620;28;20173;-45
2023/07/21 07:45:39;;;;;;;4.07;3.77;;;18.20;99.90;;;;;;5232637;28;20497;-46
2023/07/21 07:48:10;;;;;;;9.13;3.77;;;18.40;99.90;;;;;;5220935;28;20211;-45
2023/07/21 07:50:41;;;;;;;5.60;4.40;;;18.50;99.90;;;;;;5240846;28;20205;-45
2023/07/21 07:53:12;;;;;;;4.93;3.20;;;18.60;99.70;;;;;;5220521;28;20460;-45
2023/07/21 07:55:44;;;;;;;4.57;3.63;;;18.50;99.50;;;;;;5235583;28;20444;-46
2023/07/21 07:58:14;;;;;;;4.13;3.60;;;18.70;99.30;;;;;;5234842;28;20215;-46
2023/07/21 08:00:45;;;;;;;5.73;4.57;;;18.70;98.60;;;;;;5207349;28;20456;-48
2023/07/21 08:03:16;;;;;;;6.73;3.30;;;18.80;98.30;;;;;;5231916;28;20183;-46
2023/07/21 08:05:48;;;;;;;7.83;4.07;;;18.80;98.10;;;;;;5217305;28;20658;-47
2023/07/21 08:08:21;;;;;;;6.90;3.97;;;18.90;97.80;;;;;;5242193;28;20178;-46
2023/07/21 08:10:52;;;;;;;7.80;3.77;;;19.00;97.60;;;;;;5219513;28;20526;-47
2023/07/21 08:13:23;;;;;;;4.57;2.73;;;19.10;97.10;;;;;;5232923;28;20509;-45
2023/07/21 08:15:53;;;;;;;6.43;3.00;;;19.20;96.60;;;;;;5239536;28;20182;-46
2023/07/21 08:18:24;;;;;;;7.13;3.77;;;19.10;96.20;;;;;;5249020;28;20197;-46
2023/07/21 08:20:55;;;;;;;4.87;3.40;;;19.00;95.50;;;;;;5214456;28;20585;-47
2023/07/21 08:23:26;;;;;;;4.67;2.80;;;19.00;96.20;;;;;;5214221;28;20298;-46
2023/07/21 08:25:57;;;;;;;3.10;2.80;;;19.00;95.90;;;;;;5236329;28;20194;-45
2023/07/21 08:28:27;;;;;;;6.17;2.87;;;19.10;95.70;;;;;;5222123;28;20551;-46
2023/07/21 08:30:58;;;;;;;4.17;3.27;;;19.20;95.60;;;;;;5229615;28;20436;-46
2023/07/21 08:33:28;;;;;;;2.83;2.60;;;19.50;94.70;;;;;;5216792;28;20206;-46
2023/07/21 08:35:59;;;;;;;4.70;2.80;;;19.60;94.10;;;;;;5241360;28;20205;-46
2023/07/21 08:38:30;;;;;;;6.93;3.40;;;20.00;93.00;;;;;;5219834;28;20266;-46
2023/07/21 08:41:09;;;;;;;2.87;2.67;;;20.50;91.90;;;;;;5220953;28;20678;-47
2023/07/21 08:43:40;;;;;;;2.90;2.50;;;21.10;90.10;;;;;;5231313;28;20731;-46
2023/07/21 08:46:11;;;;;;;5.80;2.40;;;21.50;86.60;;;;;;5223871;28;20435;-45
2023/07/21 08:48:41;;;;;;;3.10;2.90;;;21.80;84.40;;;;;;5243802;28;20452;-47
2023/07/21 08:51:12;;;;;;;5.97;3.50;;;21.80;82.40;;;;;;5237988;28;20183;-46
2023/07/21 08:53:43;;;;;;;8.93;3.30;;;21.60;81.00;;;;;;5211942;28;20222;-46
2023/07/21 08:56:13;;;;;;;7.33;3.17;;;21.40;81.10;;;;;;5240797;28;20245;-46
2023/07/21 08:58:44;;;;;;;2.50;2.40;;;21.30;80.60;;;;;;5224969;28;20209;-46
2023/07/21 09:01:15;;;;;;;3.50;2.70;;;20.70;80.20;;;;;;5234438;28;20572;-47
2023/07/21 09:03:46;;;;;;;3.53;2.43;;;20.80;81.60;;;;;;5220763;28;20187;-46
2023/07/21 09:06:17;;;;;;;6.40;3.40;;;21.10;81.90;;;;;;5237443;28;20448;-46
2023/07/21 09:08:48;;;;;;;5.20;3.27;;;21.30;81.70;;;;;;5225744;28;20520;-46
2023/07/21 09:11:19;;;;;;;5.53;4.00;;;21.30;80.50;;;;;;5216875;28;20210;-47
2023/07/21 09:13:52;;;;;;;5.13;3.87;;;20.90;83.00;;;;;;5239981;28;20186;-46
2023/07/21 09:16:23;;;;;;;14.00;2.90;;;20.50;83.10;;;;;;5219413;28;20221;-46
2023/07/21 09:18:56;;;;;;;5.70;3.10;;;20.30;83.80;;;;;;5205565;28;20824;-46
2023/07/21 09:21:27;;;;;;;12.33;3.07;;;20.00;85.20;;;;;;5235462;28;20250;-45
2023/07/21 09:24:02;;;;;;;4.83;3.27;;;19.80;87.30;;;;;;5215591;28;20467;-47
2023/07/21 09:26:33;;;;;;;6.20;3.73;;;19.60;87.20;;;;;;5241852;28;20239;-47
2023/07/21 09:29:17;;;;;;;2.93;2.73;;;19.40;90.20;;;;;;5235460;28;20465;-47
2023/07/21 09:31:47;;;;;;;6.00;2.27;;;19.40;91.20;;;;;;5230195;28;20182;-45
2023/07/21 09:34:18;;;;;;;3.23;2.87;;;19.40;90.40;;;;;;5220240;28;20568;-45
2023/07/21 09:36:50;;;;;;;7.40;3.00;;;19.60;90.50;;;;;;5237915;28;20210;-45
2023/07/21 09:39:20;;;;;;;4.93;2.97;;;19.80;90.30;;;;;;5246602;28;20209;-45
2023/07/21 09:41:52;;;;;;;9.77;2.57;;;20.10;90.00;;;;;;5222663;28;20543;-48
2023/07/21 09:44:22;;;;;;;3.20;2.27;;;20.30;88.70;;;;;;5241075;28;20182;-45
2023/07/21 09:46:55;;;;;;;4.03;2.80;;;20.60;89.00;;;;;;5213990;28;20445;-47
2023/07/21 09:49:25;;;;;;;3.83;2.60;;;20.90;87.60;;;;;;5239263;28;20213;-47
2023/07/21 09:51:57;;;;;;;2.70;2.30;;;21.20;87.60;;;;;;5239429;28;20451;-46
2023/07/21 09:54:30;;;;;;;3.00;2.80;;;21.40;87.80;;;;;;5241102;28;20174;-46
2023/07/21 09:57:03;;;;;;;4.43;2.90;;;21.70;89.00;;;;;;5224680;28;20481;-47
2023/07/21 09:59:36;;;;;;;4.13;2.90;;;21.80;85.00;;;;;;5234239;28;20459;-49
2023/07/21 10:02:08;;;;;;;8.37;2.60;;;21.70;85.20;;;;;;5210327;28;20433;-47
2023/07/21 10:04:39;;;;;;;4.37;2.13;;;21.60;84.40;;;;;;5239889;28;20436;-47
2023/07/21 10:07:12;;;;;;;3.90;2.13;;;21.50;83.00;;;;;;5233737;28;20448;-46
2023/07/21 10:09:46;;;;;;;3.23;2.87;;;21.40;84.10;;;;;;5220068;28;20217;-46
2023/07/21 10:12:18;;;;;;;4.20;2.67;;;21.30;84.60;;;;;;5215434;28;20432;-46
2023/07/21 10:14:51;;;;;;;4.13;3.03;;;21.30;84.60;;;;;;5238096;28;21010;-47
2023/07/21 10:17:25;;;;;;;6.03;2.10;;;21.30;83.30;;;;;;5231111;28;20475;-48
2023/07/21 10:20:08;;;;;;;3.67;3.23;;;21.50;85.30;;;;;;5229344;28;20464;-47
2023/07/21 10:22:38;;;;;;;2.90;2.60;;;21.70;82.40;;;;;;5213476;28;20466;-45
2023/07/21 10:25:10;;;;;;;3.47;2.93;;;21.90;81.70;;;;;;5214643;28;20433;-48
2023/07/21 10:27:40;;;;;;;3.50;3.20;;;22.30;82.40;;;;;;5224701;28;20199;-47
2023/07/21 10:30:20;;;;;;;3.03;2.73;;;22.60;79.60;;;;;;5232741;28;20558;-47
2023/07/21 10:32:52;;;;;;;8.53;3.20;;;23.00;78.90;;;;;;5234171;28;20190;-48
2023/07/21 10:35:39;;;;;;;5.63;2.37;;;22.60;74.20;;;;;;5225614;28;21912;-46
2023/07/21 10:38:20;;;;;;;3.73;1.90;;;22.60;76.80;;;;;;5218937;28;20472;-47
2023/07/21 10:40:50;;;;;;;6.27;2.33;;;22.30;72.20;;;;;;5235162;28;20452;-46
2023/07/21 10:43:21;;;;;;;5.23;2.57;;;22.00;73.80;;;;;;5216396;28;21169;-47
2023/07/21 10:45:53;;;;;;;1.97;1.83;;;22.10;73.40;;;;;;5213871;28;20289;-47
2023/07/21 10:48:25;;;;;;;3.37;1.70;;;21.90;70.20;;;;;;5231133;28;20186;-46
2023/07/21 10:50:58;;;;;;;3.60;1.87;;;22.10;70.70;;;;;;5237103;28;20452;-47
2023/07/21 10:53:29;;;;;;;1.80;1.53;;;22.40;69.00;;;;;;5225964;28;20459;-48
2023/07/21 10:56:07;;;;;;;1.40;1.30;;;22.50;68.30;;;;;;5238057;28;20496;-46
2023/07/21 10:58:38;;;;;;;1.43;1.43;;;22.40;68.70;;;;;;5235264;28;20226;-45
2023/07/21 11:01:08;;;;;;;1.70;1.60;;;22.90;68.10;;;;;;5239694;28;20436;-46
2023/07/21 11:03:43;;;;;;;2.00;1.40;;;22.90;68.40;;;;;;5236575;28;20256;-47
2023/07/21 11:06:17;;;;;;;5.13;1.97;;;22.80;68.30;;;;;;5238168;28;20189;-46
2023/07/21 11:08:49;;;;;;;2.43;2.27;;;22.90;69.20;;;;;;5236860;28;20470;-46
2023/07/21 11:11:21;;;;;;;7.70;2.47;;;22.70;68.50;;;;;;5201061;28;20498;-45
2023/07/21 11:13:52;;;;;;;8.47;1.87;;;22.30;67.70;;;;;;5220136;28;20796;-48
2023/07/21 11:16:22;;;;;;;2.33;1.43;;;21.80;70.90;;;;;;5230603;28;20463;-46
2023/07/21 11:18:53;;;;;;;2.37;1.70;;;21.40;71.80;;;;;;5233137;28;20623;-47
2023/07/21 11:21:24;;;;;;;2.30;1.70;;;21.30;74.20;;;;;;5239418;28;20175;-47
2023/07/21 11:24:00;;;;;;;1.60;1.50;;;21.10;73.50;;;;;;5217944;28;20686;-47
2023/07/21 11:26:31;;;;;;;2.70;1.70;;;21.10;74.30;;;;;;5237992;28;20262;-47
2023/07/21 11:29:08;;;;;;;1.50;1.40;;;21.30;75.20;;;;;;5212773;28;20619;-50
2023/07/21 11:31:39;;;;;;;2.30;1.60;;;21.20;75.00;;;;;;5233069;28;20705;-47
2023/07/21 11:34:26;;;;;;;1.97;1.50;;;21.20;75.60;;;;;;5229531;28;20491;-46
2023/07/21 11:36:58;;;;;;;2.93;1.57;;;21.00;74.80;;;;;;5227267;28;20228;-46
2023/07/21 11:39:30;;;;;;;1.90;1.70;;;20.90;74.80;;;;;;5219686;28;20531;-46
2023/07/21 11:42:00;;;;;;;1.77;1.67;;;20.70;75.10;;;;;;5240231;28;20431;-46
2023/07/21 11:44:35;;;;;;;3.23;1.33;;;20.60;77.30;;;;;;5231218;28;20782;-46
2023/07/21 11:47:13;;;;;;;2.83;2.60;;;20.70;78.70;;;;;;5230506;28;20178;-46
2023/07/21 11:49:45;;;;;;;1.83;1.73;;;20.80;79.30;;;;;;5211947;28;20802;-47
2023/07/21 11:52:24;;;;;;;2.40;1.63;;;20.80;80.30;;;;;;5212210;28;20505;-47
2023/07/21 11:54:57;;;;;;;21.87;2.10;;;20.70;78.60;;;;;;5227225;28;20448;-46
2023/07/21 11:57:27;;;;;;;3.30;2.10;;;20.50;80.10;;;;;;5230808;28;20461;-47
2023/07/21 11:59:58;;;;;;;2.33;1.63;;;20.40;81.50;;;;;;5209626;28;20464;-48
2023/07/21 12:02:31;;;;;;;2.07;1.40;;;20.30;83.10;;;;;;5242922;28;20186;-47
2023/07/21 12:05:03;;;;;;;2.10;1.43;;;20.20;81.10;;;;;;5233791;28;20187;-48
2023/07/21 12:07:34;;;;;;;1.10;1.10;;;20.10;84.00;;;;;;5228807;28;20443;-47
2023/07/21 12:10:06;;;;;;;1.63;1.50;;;20.20;83.60;;;;;;5232450;28;20544;-48
2023/07/21 12:12:37;;;;;;;3.03;1.53;;;20.20;84.00;;;;;;5215822;28;20503;-46
2023/07/21 12:15:10;;;;;;;5.70;1.93;;;20.30;82.80;;;;;;5215934;28;20440;-45
2023/07/21 12:17:42;;;;;;;7.70;1.80;;;20.20;82.20;;;;;;5219376;28;20210;-48
2023/07/21 12:20:12;;;;;;;2.77;1.20;;;20.30;82.20;;;;;;5235764;28;21072;-47
2023/07/21 12:22:43;;;;;;;3.37;1.87;;;20.50;82.40;;;;;;5220723;28;20516;-47
2023/07/21 12:25:14;;;;;;;3.80;1.47;;;20.70;82.70;;;;;;5232805;28;20190;-46
2023/07/21 12:27:45;;;;;;;1.50;1.40;;;20.70;81.00;;;;;;5217334;28;20186;-48
2023/07/21 12:30:16;;;;;;;1.33;1.23;;;20.80;81.00;;;;;;5228513;28;20559;-47
2023/07/21 12:32:46;;;;;;;1.87;1.50;;;21.20;80.60;;;;;;5214014;28;20440;-46
2023/07/21 12:35:17;;;;;;;4.47;2.03;;;21.30;80.40;;;;;;5222812;28;20197;-47
2023/07/21 12:37:48;;;;;;;12.00;1.67;;;21.50;79.70;;;;;;5205992;28;20230;-47
2023/07/21 12:40:18;;;;;;;1.80;1.70;;;21.60;79.00;;;;;;5211255;28;20238;-47
2023/07/21 12:42:49;;;;;;;1.77;1.67;;;21.50;78.00;;;;;;5236110;28;20187;-46
2023/07/21 12:45:20;;;;;;;1.60;1.50;;;21.60;79.00;;;;;;5218686;28;20183;-49
2023/07/21 12:47:50;;;;;;;1.83;1.53;;;21.70;78.70;;;;;;5210945;28;20561;-46
2023/07/21 12:50:21;;;;;;;1.83;1.73;;;21.70;78.70;;;;;;5237388;28;20251;-46
2023/07/21 12:52:52;;;;;;;1.30;1.20;;;21.80;78.70;;;;;;5229712;28;20175;-46
2023/07/21 12:55:22;;;;;;;2.83;1.70;;;21.70;79.10;;;;;;5234259;28;20194;-46
2023/07/21 12:57:53;;;;;;;8.03;1.93;;;21.50;83.90;;;;;;5217744;28;20237;-48
2023/07/21 13:00:23;;;;;;;2.97;1.77;;;21.30;84.10;;;;;;5231392;28;20226;-47
2023/07/21 13:02:54;;;;;;;1.83;1.73;;;21.20;86.30;;;;;;5233787;28;20179;-48
2023/07/21 13:05:25;;;;;;;2.77;1.77;;;21.40;87.30;;;;;;5219873;28;20178;-45
2023/07/21 13:07:56;;;;;;;4.00;3.53;;;21.80;85.30;;;;;;5231499;28;20194;-48